sensor_id;sensor_type;location;lat;lon;timestamp;temperature;humidity
1956;DHT22;978;48.314;11.562;2023-03-01T00:00:48;19.50;58.60
1956;DHT22;978;48.314;11.562;2023-03-01T00:03:15;19.40;58.50
1956;DHT22;978;48.314;11.562;2023-03-01T00:05:44;19.50;58.60
1956;DHT22;978;48.314;11.562;2023-03-01T00:08:12;19.40;58.50
1956;DHT22;978;48.314;11.562;2023-03-01T00:10:39;19.40;58.50
1956;DHT22;978;48.314;11.562;2023-03-01T00:13:06;19.50;58.60
1956;DHT22;978;48.314;11.562;2023-03-01T00:15:32;19.50;58.60
1956;DHT22;978;48.314;11.562;2023-03-01T00:18:00;19.40;58.50
1956;DHT22;978;48.314;11.562;2023-03-01T00:20:27;19.50;59.10
1956;DHT22;978;48.314;11.562;2023-03-01T00:22:54;19.50;58.60
1956;DHT22;978;48.314;11.562;2023-03-01T00:25:22;19.50;58.60
1956;DHT22;978;48.314;11.562;2023-03-01T00:27:48;19.50;58.60
1956;DHT22;978;48.314;11.562;2023-03-01T00:30:16;19.40;58.50
1956;DHT22;978;48.314;11.562;2023-03-01T00:32:42;19.40;58.50
1956;DHT22;978;48.314;11.562;2023-03-01T00:35:09;19.40;58.50
1956;DHT22;978;48.314;11.562;2023-03-01T00:37:36;19.40;58.50
1956;DHT22;978;48.314;11.562;2023-03-01T00:40:03;19.40;58.50
1956;DHT22;978;48.314;11.562;2023-03-01T00:42:32;19.40;58.50
1956;DHT22;978;48.314;11.562;2023-03-01T00:44:59;19.40;58.50
1956;DHT22;978;48.314;11.562;2023-03-01T00:47:28;19.40;58.50
1956;DHT22;978;48.314;11.562;2023-03-01T00:49:55;19.40;58.50
1956;DHT22;978;48.314;11.562;2023-03-01T00:52:22;19.40;58.50
1956;DHT22;978;48.314;11.562;2023-03-01T00:54:51;19.40;58.40
1956;DHT22;978;48.314;11.562;2023-03-01T00:57:18;19.40;58.50
1956;DHT22;978;48.314;11.562;2023-03-01T00:59:46;19.40;58.50
1956;DHT22;978;48.314;11.562;2023-03-01T01:02:12;19.40;58.40
1956;DHT22;978;48.314;11.562;2023-03-01T01:04:39;19.40;58.40
1956;DHT22;978;48.314;11.562;2023-03-01T01:07:06;19.40;58.40
1956;DHT22;978;48.314;11.562;2023-03-01T01:09:33;19.40;58.40
1956;DHT22;978;48.314;11.562;2023-03-01T01:12:00;19.40;58.40
1956;DHT22;978;48.314;11.562;2023-03-01T01:14:26;19.40;58.40
1956;DHT22;978;48.314;11.562;2023-03-01T01:16:54;19.40;58.40
1956;DHT22;978;48.314;11.562;2023-03-01T01:19:22;19.50;58.40
1956;DHT22;978;48.314;11.562;2023-03-01T01:21:48;19.40;58.40
1956;DHT22;978;48.314;11.562;2023-03-01T01:24:15;19.40;58.40
1956;DHT22;978;48.314;11.562;2023-03-01T01:26:43;19.40;58.30
1956;DHT22;978;48.314;11.562;2023-03-01T01:29:10;19.40;58.40
1956;DHT22;978;48.314;11.562;2023-03-01T01:31:38;19.40;58.40
1956;DHT22;978;48.314;11.562;2023-03-01T01:34:09;19.40;58.40
1956;DHT22;978;48.314;11.562;2023-03-01T01:36:38;19.40;58.40
1956;DHT22;978;48.314;11.562;2023-03-01T01:39:05;19.40;58.40
1956;DHT22;978;48.314;11.562;2023-03-01T01:41:33;19.40;58.40
1956;DHT22;978;48.314;11.562;2023-03-01T01:44:12;19.50;58.40
1956;DHT22;978;48.314;11.562;2023-03-01T01:46:41;19.40;58.40
1956;DHT22;978;48.314;11.562;2023-03-01T01:49:19;19.40;58.30
1956;DHT22;978;48.314;11.562;2023-03-01T01:51:49;19.40;58.30
1956;DHT22;978;48.314;11.562;2023-03-01T01:54:21;19.40;58.30
1956;DHT22;978;48.314;11.562;2023-03-01T01:56:55;19.40;58.30
1956;DHT22;978;48.314;11.562;2023-03-01T01:59:23;19.40;58.30
1956;DHT22;978;48.314;11.562;2023-03-01T02:01:51;19.40;58.30
1956;DHT22;978;48.314;11.562;2023-03-01T02:04:19;19.40;58.30
1956;DHT22;978;48.314;11.562;2023-03-01T02:06:51;19.40;58.30
1956;DHT22;978;48.314;11.562;2023-03-01T02:09:20;19.40;58.30
1956;DHT22;978;48.314;11.562;2023-03-01T02:11:49;19.40;58.30
1956;DHT22;978;48.314;11.562;2023-03-01T02:14:16;19.40;58.30
1956;DHT22;978;48.314;11.562;2023-03-01T02:16:44;19.40;58.30
1956;DHT22;978;48.314;11.562;2023-03-01T02:19:18;19.40;58.30
1956;DHT22;978;48.314;11.562;2023-03-01T02:21:53;19.40;58.30
1956;DHT22;978;48.314;11.562;2023-03-01T02:24:26;19.40;58.30
1956;DHT22;978;48.314;11.562;2023-03-01T02:26:57;19.40;58.20
1956;DHT22;978;48.314;11.562;2023-03-01T02:29:27;19.40;58.80
1956;DHT22;978;48.314;11.562;2023-03-01T02:31:57;19.40;58.20
1956;DHT22;978;48.314;11.562;2023-03-01T02:34:25;19.40;58.20
1956;DHT22;978;48.314;11.562;2023-03-01T02:36:56;19.40;58.20
1956;DHT22;978;48.314;11.562;2023-03-01T02:39:27;19.40;58.20
1956;DHT22;978;48.314;11.562;2023-03-01T02:41:56;19.40;58.20
1956;DHT22;978;48.314;11.562;2023-03-01T02:44:25;19.40;58.20
1956;DHT22;978;48.314;11.562;2023-03-01T02:46:55;19.40;58.20
1956;DHT22;978;48.314;11.562;2023-03-01T02:49:25;19.40;58.20
1956;DHT22;978;48.314;11.562;2023-03-01T02:52:21;19.40;58.20
1956;DHT22;978;48.314;11.562;2023-03-01T02:54:54;19.40;58.20
1956;DHT22;978;48.314;11.562;2023-03-01T02:57:23;19.40;58.10
1956;DHT22;978;48.314;11.562;2023-03-01T02:59:54;19.40;58.20
1956;DHT22;978;48.314;11.562;2023-03-01T03:02:24;19.40;58.20
1956;DHT22;978;48.314;11.562;2023-03-01T03:05:03;19.40;58.20
1956;DHT22;978;48.314;11.562;2023-03-01T03:07:32;19.40;58.20
1956;DHT22;978;48.314;11.562;2023-03-01T03:09:58;19.40;58.10
1956;DHT22;978;48.314;11.562;2023-03-01T03:12:25;19.40;58.10
1956;DHT22;978;48.314;11.562;2023-03-01T03:14:53;19.40;58.10
1956;DHT22;978;48.314;11.562;2023-03-01T03:17:20;19.40;58.10
1956;DHT22;978;48.314;11.562;2023-03-01T03:19:47;19.40;58.10
1956;DHT22;978;48.314;11.562;2023-03-01T03:22:14;19.40;58.10
1956;DHT22;978;48.314;11.562;2023-03-01T03:24:41;19.40;58.10
1956;DHT22;978;48.314;11.562;2023-03-01T03:27:07;19.30;58.00
1956;DHT22;978;48.314;11.562;2023-03-01T03:29:34;19.40;58.10
1956;DHT22;978;48.314;11.562;2023-03-01T03:32:03;19.40;58.00
1956;DHT22;978;48.314;11.562;2023-03-01T03:34:30;19.40;58.00
1956;DHT22;978;48.314;11.562;2023-03-01T03:36:57;19.40;58.00
1956;DHT22;978;48.314;11.562;2023-03-01T03:39:25;19.40;58.00
1956;DHT22;978;48.314;11.562;2023-03-01T03:41:52;19.40;58.00
1956;DHT22;978;48.314;11.562;2023-03-01T03:44:19;19.40;58.00
1956;DHT22;978;48.314;11.562;2023-03-01T03:46:45;19.40;58.00
1956;DHT22;978;48.314;11.562;2023-03-01T03:49:13;19.40;58.00
1956;DHT22;978;48.314;11.562;2023-03-01T03:51:40;19.40;58.00
1956;DHT22;978;48.314;11.562;2023-03-01T03:54:07;19.40;58.00
1956;DHT22;978;48.314;11.562;2023-03-01T03:56:34;19.40;58.00
1956;DHT22;978;48.314;11.562;2023-03-01T03:59:00;19.40;57.90
1956;DHT22;978;48.314;11.562;2023-03-01T04:01:27;19.40;57.90
1956;DHT22;978;48.314;11.562;2023-03-01T04:03:54;19.40;57.90
1956;DHT22;978;48.314;11.562;2023-03-01T04:06:22;19.40;57.90
1956;DHT22;978;48.314;11.562;2023-03-01T04:08:49;19.30;57.80
1956;DHT22;978;48.314;11.562;2023-03-01T04:11:16;19.40;57.90
1956;DHT22;978;48.314;11.562;2023-03-01T04:13:57;19.40;57.80
1956;DHT22;978;48.314;11.562;2023-03-01T04:16:25;19.40;57.80
1956;DHT22;978;48.314;11.562;2023-03-01T04:18:52;19.40;57.80
1956;DHT22;978;48.314;11.562;2023-03-01T04:21:21;19.40;57.80
1956;DHT22;978;48.314;11.562;2023-03-01T04:23:48;19.40;57.80
1956;DHT22;978;48.314;11.562;2023-03-01T04:26:17;19.40;57.70
1956;DHT22;978;48.314;11.562;2023-03-01T04:28:44;19.40;57.70
1956;DHT22;978;48.314;11.562;2023-03-01T04:31:16;19.40;57.70
1956;DHT22;978;48.314;11.562;2023-03-01T04:33:45;19.40;57.70
1956;DHT22;978;48.314;11.562;2023-03-01T04:36:14;19.40;57.70
1956;DHT22;978;48.314;11.562;2023-03-01T04:38:42;19.40;57.70
1956;DHT22;978;48.314;11.562;2023-03-01T04:41:13;19.40;57.60
1956;DHT22;978;48.314;11.562;2023-03-01T04:43:40;19.40;57.60
1956;DHT22;978;48.314;11.562;2023-03-01T04:46:09;19.40;57.60
1956;DHT22;978;48.314;11.562;2023-03-01T04:48:37;19.40;57.60
1956;DHT22;978;48.314;11.562;2023-03-01T04:51:05;19.40;57.60
1956;DHT22;978;48.314;11.562;2023-03-01T04:53:33;19.40;57.60
1956;DHT22;978;48.314;11.562;2023-03-01T04:56:03;19.40;57.60
1956;DHT22;978;48.314;11.562;2023-03-01T04:58:30;19.40;57.60
1956;DHT22;978;48.314;11.562;2023-03-01T05:00:57;19.40;57.60
1956;DHT22;978;48.314;11.562;2023-03-01T05:03:23;19.40;57.50
1956;DHT22;978;48.314;11.562;2023-03-01T05:05:52;19.40;57.50
1956;DHT22;978;48.314;11.562;2023-03-01T05:08:19;19.40;57.50
1956;DHT22;978;48.314;11.562;2023-03-01T05:10:48;19.40;57.50
1956;DHT22;978;48.314;11.562;2023-03-01T05:13:16;19.40;57.50
1956;DHT22;978;48.314;11.562;2023-03-01T05:15:47;19.40;57.50
1956;DHT22;978;48.314;11.562;2023-03-01T05:18:14;19.40;57.50
1956;DHT22;978;48.314;11.562;2023-03-01T05:20:41;19.40;57.40
1956;DHT22;978;48.314;11.562;2023-03-01T05:23:10;19.40;57.50
1956;DHT22;978;48.314;11.562;2023-03-01T05:25:37;19.40;57.40
1956;DHT22;978;48.314;11.562;2023-03-01T05:28:06;19.40;57.40
1956;DHT22;978;48.314;11.562;2023-03-01T05:30:36;19.30;57.30
1956;DHT22;978;48.314;11.562;2023-03-01T05:33:04;19.40;57.40
1956;DHT22;978;48.314;11.562;2023-03-01T05:35:36;19.40;57.40
1956;DHT22;978;48.314;11.562;2023-03-01T05:38:03;19.30;57.30
1956;DHT22;978;48.314;11.562;2023-03-01T05:40:29;19.40;57.40
1956;DHT22;978;48.314;11.562;2023-03-01T05:42:57;19.40;57.40
1956;DHT22;978;48.314;11.562;2023-03-01T05:45:25;19.30;57.30
1956;DHT22;978;48.314;11.562;2023-03-01T05:47:54;19.40;57.40
1956;DHT22;978;48.314;11.562;2023-03-01T05:50:23;19.40;57.30
1956;DHT22;978;48.314;11.562;2023-03-01T05:52:52;19.40;57.40
1956;DHT22;978;48.314;11.562;2023-03-01T05:55:20;19.40;57.40
1956;DHT22;978;48.314;11.562;2023-03-01T05:57:47;19.40;57.40
1956;DHT22;978;48.314;11.562;2023-03-01T06:00:17;19.30;57.30
1956;DHT22;978;48.314;11.562;2023-03-01T06:02:44;19.40;57.30
1956;DHT22;978;48.314;11.562;2023-03-01T06:05:13;19.40;57.40
1956;DHT22;978;48.314;11.562;2023-03-01T06:07:40;19.40;57.40
1956;DHT22;978;48.314;11.562;2023-03-01T06:10:09;19.30;57.30
1956;DHT22;978;48.314;11.562;2023-03-01T06:12:37;19.30;57.30
1956;DHT22;978;48.314;11.562;2023-03-01T06:15:05;19.30;57.40
1956;DHT22;978;48.314;11.562;2023-03-01T06:17:34;19.40;57.50
1956;DHT22;978;48.314;11.562;2023-03-01T06:20:03;19.40;57.50
1956;DHT22;978;48.314;11.562;2023-03-01T06:22:31;19.40;57.50
1956;DHT22;978;48.314;11.562;2023-03-01T06:24:58;19.40;57.50
1956;DHT22;978;48.314;11.562;2023-03-01T06:27:25;19.40;57.50
1956;DHT22;978;48.314;11.562;2023-03-01T06:29:52;19.40;57.40
1956;DHT22;978;48.314;11.562;2023-03-01T06:32:18;19.40;57.50
1956;DHT22;978;48.314;11.562;2023-03-01T06:34:45;19.40;57.40
1956;DHT22;978;48.314;11.562;2023-03-01T06:37:12;19.40;57.50
1956;DHT22;978;48.314;11.562;2023-03-01T06:39:40;19.40;57.40
1956;DHT22;978;48.314;11.562;2023-03-01T06:42:07;19.40;57.50
1956;DHT22;978;48.314;11.562;2023-03-01T06:44:35;19.40;57.50
1956;DHT22;978;48.314;11.562;2023-03-01T06:47:02;19.40;57.40
1956;DHT22;978;48.314;11.562;2023-03-01T06:49:29;19.40;57.40
1956;DHT22;978;48.314;11.562;2023-03-01T06:51:56;19.40;57.40
1956;DHT22;978;48.314;11.562;2023-03-01T06:54:23;19.30;57.40
1956;DHT22;978;48.314;11.562;2023-03-01T06:56:51;19.40;57.50
1956;DHT22;978;48.314;11.562;2023-03-01T06:59:18;19.40;57.40
1956;DHT22;978;48.314;11.562;2023-03-01T07:01:45;19.30;57.40
1956;DHT22;978;48.314;11.562;2023-03-01T07:04:12;19.30;57.40
1956;DHT22;978;48.314;11.562;2023-03-01T07:06:39;19.40;57.40
1956;DHT22;978;48.314;11.562;2023-03-01T07:09:06;19.40;57.40
1956;DHT22;978;48.314;11.562;2023-03-01T07:11:33;19.40;57.40
1956;DHT22;978;48.314;11.562;2023-03-01T07:14:01;19.40;57.40
1956;DHT22;978;48.314;11.562;2023-03-01T07:16:28;19.40;57.50
1956;DHT22;978;48.314;11.562;2023-03-01T07:18:55;19.50;57.70
1956;DHT22;978;48.314;11.562;2023-03-01T07:21:22;19.50;57.70
1956;DHT22;978;48.314;11.562;2023-03-01T07:23:48;19.50;57.70
1956;DHT22;978;48.314;11.562;2023-03-01T07:26:15;19.50;57.70
1956;DHT22;978;48.314;11.562;2023-03-01T07:28:42;19.50;57.80
1956;DHT22;978;48.314;11.562;2023-03-01T07:31:10;19.50;58.00
1956;DHT22;978;48.314;11.562;2023-03-01T07:33:37;19.50;58.00
1956;DHT22;978;48.314;11.562;2023-03-01T07:36:04;19.50;58.00
1956;DHT22;978;48.314;11.562;2023-03-01T07:38:32;19.50;57.90
1956;DHT22;978;48.314;11.562;2023-03-01T07:40:59;19.50;57.80
1956;DHT22;978;48.314;11.562;2023-03-01T07:43:26;19.50;57.70
1956;DHT22;978;48.314;11.562;2023-03-01T07:45:53;19.50;57.40
1956;DHT22;978;48.314;11.562;2023-03-01T07:48:21;19.50;57.50
1956;DHT22;978;48.314;11.562;2023-03-01T07:50:48;19.60;57.70
1956;DHT22;978;48.314;11.562;2023-03-01T07:53:15;19.50;57.70
1956;DHT22;978;48.314;11.562;2023-03-01T07:55:41;19.60;57.60
1956;DHT22;978;48.314;11.562;2023-03-01T07:58:08;19.60;57.90
1956;DHT22;978;48.314;11.562;2023-03-01T08:00:35;19.60;58.00
1956;DHT22;978;48.314;11.562;2023-03-01T08:03:02;19.60;58.00
1956;DHT22;978;48.314;11.562;2023-03-01T08:05:30;19.60;57.90
1956;DHT22;978;48.314;11.562;2023-03-01T08:07:57;19.60;58.00
1956;DHT22;978;48.314;11.562;2023-03-01T08:10:24;19.60;58.00
1956;DHT22;978;48.314;11.562;2023-03-01T08:12:51;19.60;58.20
1956;DHT22;978;48.314;11.562;2023-03-01T08:15:18;19.60;58.30
1956;DHT22;978;48.314;11.562;2023-03-01T08:17:45;19.60;58.10
1956;DHT22;978;48.314;11.562;2023-03-01T08:20:12;19.60;58.20
1956;DHT22;978;48.314;11.562;2023-03-01T08:22:40;19.60;58.30
1956;DHT22;978;48.314;11.562;2023-03-01T08:25:07;19.60;58.30
1956;DHT22;978;48.314;11.562;2023-03-01T08:27:34;19.60;58.20
1956;DHT22;978;48.314;11.562;2023-03-01T08:30:01;19.60;58.20
1956;DHT22;978;48.314;11.562;2023-03-01T08:32:27;19.60;58.10
1956;DHT22;978;48.314;11.562;2023-03-01T08:34:54;19.60;58.10
1956;DHT22;978;48.314;11.562;2023-03-01T08:37:21;19.60;58.20
1956;DHT22;978;48.314;11.562;2023-03-01T08:39:49;19.60;58.20
1956;DHT22;978;48.314;11.562;2023-03-01T08:42:16;19.60;58.10
1956;DHT22;978;48.314;11.562;2023-03-01T08:44:43;19.60;58.10
1956;DHT22;978;48.314;11.562;2023-03-01T08:47:09;19.60;58.10
1956;DHT22;978;48.314;11.562;2023-03-01T08:49:36;19.60;58.10
1956;DHT22;978;48.314;11.562;2023-03-01T08:52:03;19.60;58.10
1956;DHT22;978;48.314;11.562;2023-03-01T08:54:30;19.60;58.10
1956;DHT22;978;48.314;11.562;2023-03-01T08:56:58;19.60;58.10
1956;DHT22;978;48.314;11.562;2023-03-01T08:59:27;19.60;58.10
1956;DHT22;978;48.314;11.562;2023-03-01T09:01:55;19.60;58.00
1956;DHT22;978;48.314;11.562;2023-03-01T09:04:22;19.60;58.10
1956;DHT22;978;48.314;11.562;2023-03-01T09:06:49;19.60;58.10
1956;DHT22;978;48.314;11.562;2023-03-01T09:09:16;19.60;58.00
1956;DHT22;978;48.314;11.562;2023-03-01T09:11:44;19.60;58.00
1956;DHT22;978;48.314;11.562;2023-03-01T09:14:14;19.60;58.00
1956;DHT22;978;48.314;11.562;2023-03-01T09:16:41;19.60;58.00
1956;DHT22;978;48.314;11.562;2023-03-01T09:19:07;19.60;58.10
1956;DHT22;978;48.314;11.562;2023-03-01T09:21:34;19.60;58.00
1956;DHT22;978;48.314;11.562;2023-03-01T09:24:01;19.60;57.80
1956;DHT22;978;48.314;11.562;2023-03-01T09:26:28;19.60;57.70
1956;DHT22;978;48.314;11.562;2023-03-01T09:28:55;19.60;57.80
1956;DHT22;978;48.314;11.562;2023-03-01T09:31:24;19.60;57.80
1956;DHT22;978;48.314;11.562;2023-03-01T09:33:52;19.60;57.90
1956;DHT22;978;48.314;11.562;2023-03-01T09:36:21;19.60;57.90
1956;DHT22;978;48.314;11.562;2023-03-01T09:38:48;19.60;57.90
1956;DHT22;978;48.314;11.562;2023-03-01T09:41:26;19.60;58.00
1956;DHT22;978;48.314;11.562;2023-03-01T09:44:01;19.60;58.50
1956;DHT22;978;48.314;11.562;2023-03-01T09:46:36;19.60;58.00
1956;DHT22;978;48.314;11.562;2023-03-01T09:49:09;19.60;58.00
1956;DHT22;978;48.314;11.562;2023-03-01T09:51:38;19.60;58.00
1956;DHT22;978;48.314;11.562;2023-03-01T09:54:05;19.60;57.90
1956;DHT22;978;48.314;11.562;2023-03-01T09:56:36;19.60;58.00
1956;DHT22;978;48.314;11.562;2023-03-01T09:59:13;19.60;58.00
1956;DHT22;978;48.314;11.562;2023-03-01T10:01:50;19.60;57.50
1956;DHT22;978;48.314;11.562;2023-03-01T10:04:28;19.60;57.40
1956;DHT22;978;48.314;11.562;2023-03-01T10:07:05;19.60;57.70
1956;DHT22;978;48.314;11.562;2023-03-01T10:09:34;19.60;57.90
1956;DHT22;978;48.314;11.562;2023-03-01T10:12:04;19.60;58.00
1956;DHT22;978;48.314;11.562;2023-03-01T10:14:36;19.60;58.00
1956;DHT22;978;48.314;11.562;2023-03-01T10:17:11;19.60;58.00
1956;DHT22;978;48.314;11.562;2023-03-01T10:19:42;19.60;57.90
1956;DHT22;978;48.314;11.562;2023-03-01T10:22:15;19.60;57.90
1956;DHT22;978;48.314;11.562;2023-03-01T10:24:47;19.60;57.80
1956;DHT22;978;48.314;11.562;2023-03-01T10:27:19;19.60;57.90
1956;DHT22;978;48.314;11.562;2023-03-01T10:29:55;19.60;57.80
1956;DHT22;978;48.314;11.562;2023-03-01T10:32:31;19.60;57.90
1956;DHT22;978;48.314;11.562;2023-03-01T10:34:59;19.60;57.80
1956;DHT22;978;48.314;11.562;2023-03-01T10:37:28;19.60;57.80
1956;DHT22;978;48.314;11.562;2023-03-01T10:39:57;19.60;57.80
1956;DHT22;978;48.314;11.562;2023-03-01T10:42:30;19.60;57.80
1956;DHT22;978;48.314;11.562;2023-03-01T10:44:58;19.60;57.80
1956;DHT22;978;48.314;11.562;2023-03-01T10:47:27;19.60;57.80
1956;DHT22;978;48.314;11.562;2023-03-01T10:49:59;19.60;57.80
1956;DHT22;978;48.314;11.562;2023-03-01T10:52:30;19.60;57.80
1956;DHT22;978;48.314;11.562;2023-03-01T10:54:58;19.60;57.80
1956;DHT22;978;48.314;11.562;2023-03-01T10:57:32;19.60;57.80
1956;DHT22;978;48.314;11.562;2023-03-01T11:00:18;19.60;57.80
1956;DHT22;978;48.314;11.562;2023-03-01T11:02:50;19.60;57.80
1956;DHT22;978;48.314;11.562;2023-03-01T11:05:21;19.60;57.80
1956;DHT22;978;48.314;11.562;2023-03-01T11:07:51;19.60;57.80
1956;DHT22;978;48.314;11.562;2023-03-01T11:10:20;19.60;57.80
1956;DHT22;978;48.314;11.562;2023-03-01T11:12:48;19.60;57.80
1956;DHT22;978;48.314;11.562;2023-03-01T11:15:26;19.60;57.80
1956;DHT22;978;48.314;11.562;2023-03-01T11:17:56;19.60;57.70
1956;DHT22;978;48.314;11.562;2023-03-01T11:20:30;19.60;57.70
1956;DHT22;978;48.314;11.562;2023-03-01T11:23:01;19.60;57.60
1956;DHT22;978;48.314;11.562;2023-03-01T11:25:33;19.60;57.50
1956;DHT22;978;48.314;11.562;2023-03-01T11:28:05;19.60;57.50
1956;DHT22;978;48.314;11.562;2023-03-01T11:30:35;19.60;57.50
1956;DHT22;978;48.314;11.562;2023-03-01T11:33:12;19.60;57.50
1956;DHT22;978;48.314;11.562;2023-03-01T11:35:44;19.60;57.20
1956;DHT22;978;48.314;11.562;2023-03-01T11:38:19;19.60;57.10
1956;DHT22;978;48.314;11.562;2023-03-01T11:40:50;19.60;57.00
1956;DHT22;978;48.314;11.562;2023-03-01T11:43:26;19.60;57.40
1956;DHT22;978;48.314;11.562;2023-03-01T11:49:16;19.60;56.70
1956;DHT22;978;48.314;11.562;2023-03-01T11:51:50;19.60;56.50
1956;DHT22;978;48.314;11.562;2023-03-01T11:54:32;19.60;56.50
1956;DHT22;978;48.314;11.562;2023-03-01T11:57:07;19.60;54.60
1956;DHT22;978;48.314;11.562;2023-03-01T12:00:02;19.60;53.50
1956;DHT22;978;48.314;11.562;2023-03-01T12:02:51;19.50;52.90
1956;DHT22;978;48.314;11.562;2023-03-01T12:05:52;19.50;53.70
1956;DHT22;978;48.314;11.562;2023-03-01T12:08:27;19.50;54.20
1956;DHT22;978;48.314;11.562;2023-03-01T12:11:04;19.60;55.00
1956;DHT22;978;48.314;11.562;2023-03-01T12:13:49;19.60;55.10
1956;DHT22;978;48.314;11.562;2023-03-01T12:16:39;19.60;55.10
1956;DHT22;978;48.314;11.562;2023-03-01T12:19:32;19.60;55.00
1956;DHT22;978;48.314;11.562;2023-03-01T12:22:29;19.60;54.80
1956;DHT22;978;48.314;11.562;2023-03-01T12:25:21;19.60;55.00
1956;DHT22;978;48.314;11.562;2023-03-01T12:28:32;19.60;54.80
1956;DHT22;978;48.314;11.562;2023-03-01T12:31:17;19.60;54.90
1956;DHT22;978;48.314;11.562;2023-03-01T12:33:56;19.60;54.80
1956;DHT22;978;48.314;11.562;2023-03-01T12:36:36;19.60;54.80
1956;DHT22;978;48.314;11.562;2023-03-01T12:39:21;19.60;54.80
1956;DHT22;978;48.314;11.562;2023-03-01T12:41:58;19.60;54.80
1956;DHT22;978;48.314;11.562;2023-03-01T12:44:43;19.60;54.80
1956;DHT22;978;48.314;11.562;2023-03-01T12:47:26;19.60;54.80
1956;DHT22;978;48.314;11.562;2023-03-01T12:49:57;19.60;54.80
1956;DHT22;978;48.314;11.562;2023-03-01T12:52:33;19.60;54.80
1956;DHT22;978;48.314;11.562;2023-03-01T12:55:16;19.60;54.80
1956;DHT22;978;48.314;11.562;2023-03-01T12:57:48;19.60;54.80
1956;DHT22;978;48.314;11.562;2023-03-01T13:00:27;19.60;54.90
1956;DHT22;978;48.314;11.562;2023-03-01T13:03:00;19.60;54.80
1956;DHT22;978;48.314;11.562;2023-03-01T13:05:39;19.60;54.80
1956;DHT22;978;48.314;11.562;2023-03-01T13:08:13;19.60;54.80
1956;DHT22;978;48.314;11.562;2023-03-01T13:10:55;19.60;54.80
1956;DHT22;978;48.314;11.562;2023-03-01T13:13:24;19.60;54.80
1956;DHT22;978;48.314;11.562;2023-03-01T13:15:52;19.60;54.80
1956;DHT22;978;48.314;11.562;2023-03-01T13:18:33;19.60;55.40
1956;DHT22;978;48.314;11.562;2023-03-01T13:21:03;19.60;56.50
1956;DHT22;978;48.314;11.562;2023-03-01T13:23:34;19.60;55.80
1956;DHT22;978;48.314;11.562;2023-03-01T13:26:13;19.60;55.10
1956;DHT22;978;48.314;11.562;2023-03-01T13:28:53;19.60;54.90
1956;DHT22;978;48.314;11.562;2023-03-01T13:34:44;19.60;55.00
1956;DHT22;978;48.314;11.562;2023-03-01T13:40:05;19.60;55.00
1956;DHT22;978;48.314;11.562;2023-03-01T13:42:46;19.60;55.00
1956;DHT22;978;48.314;11.562;2023-03-01T13:45:21;19.60;55.10
1956;DHT22;978;48.314;11.562;2023-03-01T13:47:52;19.60;55.10
1956;DHT22;978;48.314;11.562;2023-03-01T13:50:22;19.60;55.20
1956;DHT22;978;48.314;11.562;2023-03-01T13:52:55;19.60;55.20
1956;DHT22;978;48.314;11.562;2023-03-01T13:55:29;19.60;55.20
1956;DHT22;978;48.314;11.562;2023-03-01T13:58:01;19.60;55.20
1956;DHT22;978;48.314;11.562;2023-03-01T14:00:34;19.60;55.20
1956;DHT22;978;48.314;11.562;2023-03-01T14:03:19;19.60;55.30
1956;DHT22;978;48.314;11.562;2023-03-01T14:06:02;19.60;55.30
1956;DHT22;978;48.314;11.562;2023-03-01T14:08:33;19.60;55.30
1956;DHT22;978;48.314;11.562;2023-03-01T14:14:31;19.60;55.30
1956;DHT22;978;48.314;11.562;2023-03-01T14:19:56;19.60;55.30
1956;DHT22;978;48.314;11.562;2023-03-01T14:22:25;19.60;55.30
1956;DHT22;978;48.314;11.562;2023-03-01T14:24:56;19.60;55.30
1956;DHT22;978;48.314;11.562;2023-03-01T14:27:26;19.60;55.30
1956;DHT22;978;48.314;11.562;2023-03-01T14:29:58;19.60;55.40
1956;DHT22;978;48.314;11.562;2023-03-01T14:32:27;19.60;55.40
1956;DHT22;978;48.314;11.562;2023-03-01T14:34:55;19.60;55.40
1956;DHT22;978;48.314;11.562;2023-03-01T14:37:25;19.60;55.50
1956;DHT22;978;48.314;11.562;2023-03-01T14:39:53;19.60;55.50
1956;DHT22;978;48.314;11.562;2023-03-01T14:42:21;19.60;55.50
1956;DHT22;978;48.314;11.562;2023-03-01T14:44:50;19.60;55.50
1956;DHT22;978;48.314;11.562;2023-03-01T14:47:26;19.60;55.50
1956;DHT22;978;48.314;11.562;2023-03-01T14:49:58;19.60;55.50
1956;DHT22;978;48.314;11.562;2023-03-01T14:52:31;19.60;55.50
1956;DHT22;978;48.314;11.562;2023-03-01T14:55:04;19.60;55.60
1956;DHT22;978;48.314;11.562;2023-03-01T14:57:33;19.60;55.60
1956;DHT22;978;48.314;11.562;2023-03-01T15:00:03;19.60;55.60
1956;DHT22;978;48.314;11.562;2023-03-01T15:02:34;19.60;55.60
1956;DHT22;978;48.314;11.562;2023-03-01T15:05:03;19.60;55.60
1956;DHT22;978;48.314;11.562;2023-03-01T15:07:34;19.60;55.60
1956;DHT22;978;48.314;11.562;2023-03-01T15:10:06;19.60;55.60
1956;DHT22;978;48.314;11.562;2023-03-01T15:12:41;19.50;55.60
1956;DHT22;978;48.314;11.562;2023-03-01T15:15:32;19.60;55.60
1956;DHT22;978;48.314;11.562;2023-03-01T15:18:03;19.60;55.60
1956;DHT22;978;48.314;11.562;2023-03-01T15:20:32;19.60;55.60
1956;DHT22;978;48.314;11.562;2023-03-01T15:23:02;19.60;55.60
1956;DHT22;978;48.314;11.562;2023-03-01T15:25:30;19.60;55.70
1956;DHT22;978;48.314;11.562;2023-03-01T15:28:00;19.60;55.70
1956;DHT22;978;48.314;11.562;2023-03-01T15:30:30;19.60;55.70
1956;DHT22;978;48.314;11.562;2023-03-01T15:33:28;19.60;55.70
1956;DHT22;978;48.314;11.562;2023-03-01T15:35:57;19.60;55.70
1956;DHT22;978;48.314;11.562;2023-03-01T15:38:33;19.60;55.70
1956;DHT22;978;48.314;11.562;2023-03-01T15:41:02;19.60;55.70
1956;DHT22;978;48.314;11.562;2023-03-01T15:43:46;19.60;55.70
1956;DHT22;978;48.314;11.562;2023-03-01T15:46:26;19.60;55.70
1956;DHT22;978;48.314;11.562;2023-03-01T15:48:57;19.60;55.80
1956;DHT22;978;48.314;11.562;2023-03-01T15:51:33;19.60;55.80
1956;DHT22;978;48.314;11.562;2023-03-01T15:54:08;19.60;55.80
1956;DHT22;978;48.314;11.562;2023-03-01T15:56:37;19.60;55.80
1956;DHT22;978;48.314;11.562;2023-03-01T15:59:10;19.60;55.90
1956;DHT22;978;48.314;11.562;2023-03-01T16:01:39;19.60;55.90
1956;DHT22;978;48.314;11.562;2023-03-01T16:04:09;19.60;55.90
1956;DHT22;978;48.314;11.562;2023-03-01T16:06:38;19.60;55.90
1956;DHT22;978;48.314;11.562;2023-03-01T16:09:06;19.60;55.80
1956;DHT22;978;48.314;11.562;2023-03-01T16:11:35;19.60;55.80
1956;DHT22;978;48.314;11.562;2023-03-01T16:14:08;19.60;55.80
1956;DHT22;978;48.314;11.562;2023-03-01T16:16:35;19.60;55.80
1956;DHT22;978;48.314;11.562;2023-03-01T16:19:02;19.60;55.80
1956;DHT22;978;48.314;11.562;2023-03-01T16:21:30;19.60;55.80
1956;DHT22;978;48.314;11.562;2023-03-01T16:23:58;19.60;55.80
1956;DHT22;978;48.314;11.562;2023-03-01T16:26:25;19.60;55.80
1956;DHT22;978;48.314;11.562;2023-03-01T16:28:55;19.60;55.80
1956;DHT22;978;48.314;11.562;2023-03-01T16:31:24;19.60;55.80
1956;DHT22;978;48.314;11.562;2023-03-01T16:33:53;19.60;55.90
1956;DHT22;978;48.314;11.562;2023-03-01T16:36:21;19.60;55.90
1956;DHT22;978;48.314;11.562;2023-03-01T16:38:50;19.60;55.90